Caravelle, Martinique

7:58 PM AST on May 03, 2015 (GMT -0400)
IFLAMBOY2 | | Change Station
CLOSE
Current Station
Personal Weather Station
Location: Gros Morne, FLAMBOYANT
Elevation: 866 ft
Nearby Weather Stations

Elev 866 ft 14.71 °N, 61.02 °W | Updated 6 seconds ago

Mostly Cloudy
Mostly Cloudy
77.2 °F
Feels Like 79 °F
N
1.2
Wind Variable Wind from SW
Gusts 1.2 mph

Today
High -- | Low -- °F
--% Chance of Precip.
Yesterday
High -- | Low -- °F
Precip. -- in
5:39 AM 6:21 PM
Full, 100% visible
Pressure 29.98 in
Visibility 6.2 miles
Clouds Mostly Cloudy 2300 ft
Mostly Cloudy 3500 ft
Mostly Cloudy 4500 ft
Heat Index 79 °F
Dew Point 68 °F
Humidity 73%
Rainfall 0.00 in
Snow Depth Not available.
UV 0 out of 12
Pollen Not available.
Air Quality Not available.
Flu Activity Not available.
METAR TFFF 032330Z AUTO 09007KT 9999 BKN023 BKN035 BKN045 27/22 Q1015

More Conditions Fewer Conditions

Pressure 29.98 in
Visibility 6.2 miles
Clouds Mostly Cloudy 2300 ft
Mostly Cloudy 3500 ft
Mostly Cloudy 4500 ft
Heat Index 79 °F
Dew Point 68 °F
Humidity 73%
Rainfall 0.00 in
Snow Depth Not available.
UV 0 out of 12
Pollen Not available.
Air Quality Not available.
Flu Activity Not available.
METAR TFFF 032330Z AUTO 09007KT 9999 BKN023 BKN035 BKN045 27/22 Q1015

More Conditions Fewer Conditions

10-Day Weather Forecast

Almanac

Astronomy

May. 03, 2015 Rise Set
Actual Time
Civil Twilight
Nautical Twilight
Astronomical Twilight
Moon
Length of Visible Light
Length of Day
Tomorrow will be .
, % of the Moon is Illuminated

Today's Extremes

Country Highs Country Lows

Community

WunderPhotos

Upload Photos

1,818,422 photos uploaded!

WunderBlogs® & News

Nearby

Air Quality

  Air Quality AQ Index Pollutant
Not available.

Snow Depth

Station Depth Elevation

Earthquake Activity

City Distance Mag. Time & Date
Minimum magnitude displayed is 2.5.

Coastal Water Temperatures

Place Temperature

Stations

Nearby Weather Stations

Station Location Temp. Windchill Dew Point Humidity Wind Precip. Elev Updated Type